Flugplatz Soest/Bad Sassendorf

Für EDLZ sind keine METAR/TAF Berichte vorhanden.
Es werden die Flugwettermeldungen vom Flugplatz Paderborn Lippstadt in 28 km Entfernung angezeigt.

Bericht für EDLP

vom 17.09. um 14:20 UTC

Wind 10 kt aus 290°

Sichtweite 10 km oder mehr

aufgelockert bewölkt in 3100 ft

Temperatur 14.0°C

Taupunkt 8.0°C

Luftfeuchtigkeit 67%

Luftdruck 1019 hPa

EDLP 171420Z 29010KT 240V360 9999 SCT031 14/08 Q1019

Prognose für EDLP

vom 17.09. um 00:00 UTC

Zwischen 00:00 UTC und 00:00 UTC

Wind 10 kt aus 270°

Sichtweite 10 km oder mehr

aufgelockert bewölkt in 3000 ft


Zwischen 00:00 UTC und 00:00 UTC zeitweise

Wind 15 kt aus 280° in Böen 25 kt


Am 18.09. zwischen 00:00 UTC und 00:00 UTC zeitweise

variable Windrichtung mit 3 kt

TAF EDLP 171100Z 1712/1812 27010KT 9999 SCT030 TEMPO 1712/1718 28015G25KT TEMPO 1800/1807 VRB03KT
Impressum